createdAt,value
2018-10-09T00:01:26.344Z,9.97
2018-10-09T00:03:54.649Z,9.83
2018-10-09T00:06:22.995Z,7.80
2018-10-09T00:08:51.337Z,6.17
2018-10-09T00:11:19.739Z,6.20
2018-10-09T00:13:48.113Z,5.43
2018-10-09T00:16:16.381Z,5.83
2018-10-09T00:18:44.732Z,6.97
2018-10-09T00:21:13.051Z,8.67
2018-10-09T00:23:41.385Z,8.20
2018-10-09T00:26:09.797Z,6.80
2018-10-09T00:28:38.059Z,5.77
2018-10-09T00:31:06.459Z,6.27
2018-10-09T00:33:34.795Z,5.70
2018-10-09T00:36:03.118Z,7.10
2018-10-09T00:38:31.554Z,5.10
2018-10-09T00:40:59.898Z,5.50
2018-10-09T00:43:28.853Z,5.43
2018-10-09T00:45:57.165Z,6.53
2018-10-09T00:48:25.592Z,5.00
2018-10-09T00:50:54.006Z,5.30
2018-10-09T00:53:22.374Z,5.80
2018-10-09T00:55:50.739Z,4.07
2018-10-09T00:58:19.051Z,6.77
2018-10-09T01:00:47.402Z,6.17
2018-10-09T01:03:15.730Z,8.60
2018-10-09T01:05:44.166Z,6.97
2018-10-09T01:08:12.527Z,6.07
2018-10-09T01:10:40.912Z,5.47
2018-10-09T01:13:09.202Z,5.70
2018-10-09T01:15:37.531Z,5.90
2018-10-09T01:18:05.846Z,7.27
2018-10-09T01:20:35.096Z,8.70
2018-10-09T01:23:05.629Z,9.57
2018-10-09T01:25:34.972Z,7.97
2018-10-09T01:28:03.319Z,7.13
2018-10-09T01:30:32.380Z,8.37
2018-10-09T01:33:01.208Z,6.60
2018-10-09T01:35:29.529Z,5.50
2018-10-09T01:37:57.909Z,6.30
2018-10-09T01:40:26.247Z,5.40
2018-10-09T01:42:54.619Z,6.80
2018-10-09T01:45:22.940Z,5.73
2018-10-09T01:47:51.270Z,5.13
2018-10-09T01:50:19.652Z,5.83
2018-10-09T01:52:47.937Z,6.43
2018-10-09T01:55:16.249Z,5.60
2018-10-09T01:57:44.767Z,6.83
2018-10-09T02:00:13.094Z,6.80
2018-10-09T02:02:41.416Z,5.50
2018-10-09T02:05:09.987Z,6.67
2018-10-09T02:07:38.299Z,7.17
2018-10-09T02:10:06.699Z,5.37
2018-10-09T02:12:35.024Z,5.10
2018-10-09T02:15:03.444Z,7.47
2018-10-09T02:17:31.796Z,7.50
2018-10-09T02:20:00.129Z,6.80
2018-10-09T02:22:28.935Z,6.23
2018-10-09T02:24:57.256Z,10.20
2018-10-09T02:27:25.570Z,7.23
2018-10-09T02:29:54.586Z,8.47
2018-10-09T02:32:22.877Z,8.60
2018-10-09T02:34:51.199Z,10.47
2018-10-09T02:37:19.539Z,10.37
2018-10-09T02:39:47.919Z,12.00
2018-10-09T02:42:16.235Z,12.77
2018-10-09T02:44:44.538Z,14.00
2018-10-09T02:47:12.866Z,12.90
2018-10-09T02:49:41.205Z,14.63
2018-10-09T02:52:09.622Z,15.70
2018-10-09T02:54:37.988Z,13.80
2018-10-09T02:57:06.364Z,12.40
2018-10-09T02:59:34.675Z,10.47
2018-10-09T03:02:03.014Z,9.33
2018-10-09T03:04:31.862Z,10.23
2018-10-09T03:07:00.215Z,10.40
2018-10-09T03:09:28.529Z,7.43
2018-10-09T03:11:56.855Z,9.20
2018-10-09T03:14:25.164Z,9.33
2018-10-09T03:16:54.080Z,7.87
2018-10-09T03:19:22.407Z,9.27
2018-10-09T03:21:50.739Z,8.60
2018-10-09T03:24:19.052Z,9.93
2018-10-09T03:26:47.383Z,7.77
2018-10-09T03:29:15.734Z,9.43
2018-10-09T03:31:44.059Z,8.97
2018-10-09T03:34:12.367Z,8.10
2018-10-09T03:36:40.745Z,7.60
2018-10-09T03:39:09.602Z,9.57
2018-10-09T03:41:38.152Z,8.53
2018-10-09T03:44:07.278Z,11.30
2018-10-09T03:46:35.600Z,10.27
2018-10-09T03:49:04.009Z,11.10
2018-10-09T03:51:32.346Z,10.23
2018-10-09T03:54:00.951Z,11.57
2018-10-09T03:56:29.308Z,11.33
2018-10-09T03:58:57.649Z,10.47
2018-10-09T04:01:25.997Z,9.03
2018-10-09T04:03:54.932Z,10.13
2018-10-09T04:06:23.245Z,11.80
2018-10-09T04:08:51.627Z,12.50
2018-10-09T04:11:20.217Z,10.40
2018-10-09T04:13:48.570Z,11.37
2018-10-09T04:16:16.995Z,11.47
2018-10-09T04:18:45.303Z,11.50
2018-10-09T04:21:13.638Z,8.87
2018-10-09T04:23:41.953Z,9.20
2018-10-09T04:26:10.345Z,11.20
2018-10-09T04:28:39.023Z,8.73
2018-10-09T04:31:07.383Z,8.53
2018-10-09T04:33:35.729Z,9.27
2018-10-09T04:36:04.039Z,11.53
2018-10-09T04:38:32.685Z,11.30
2018-10-09T04:41:01.011Z,12.33
2018-10-09T04:43:29.385Z,11.17
2018-10-09T04:45:57.732Z,10.80
2018-10-09T04:48:26.149Z,13.50
2018-10-09T04:50:54.497Z,13.53
2018-10-09T04:53:22.796Z,14.77
2018-10-09T04:55:51.209Z,11.90
2018-10-09T04:58:19.534Z,13.67
2018-10-09T05:00:47.959Z,14.57
2018-10-09T05:03:22.869Z,14.70
2018-10-09T05:05:51.533Z,14.93
2018-10-09T05:08:19.899Z,13.80
2018-10-09T05:10:48.231Z,12.07
2018-10-09T05:13:16.706Z,11.53
2018-10-09T05:15:45.070Z,12.23
2018-10-09T05:18:13.378Z,10.77
2018-10-09T05:20:41.702Z,19.37
2018-10-09T05:23:10.150Z,14.17
2018-10-09T05:25:38.418Z,51.20
2018-10-09T05:28:06.883Z,24.10
2018-10-09T05:30:35.211Z,35.20
2018-10-09T05:33:03.537Z,58.43
2018-10-09T05:35:31.880Z,47.83
2018-10-09T05:38:00.740Z,8.80
2018-10-09T05:40:29.095Z,8.77
2018-10-09T05:42:57.403Z,8.77
2018-10-09T05:45:25.723Z,10.13
2018-10-09T05:47:54.081Z,12.43
2018-10-09T05:50:22.385Z,10.93
2018-10-09T05:52:51.119Z,9.63
2018-10-09T05:55:19.443Z,12.50
2018-10-09T05:57:54.411Z,13.17
2018-10-09T06:00:22.804Z,13.30
2018-10-09T06:02:51.122Z,14.47
2018-10-09T06:05:19.541Z,11.07
2018-10-09T06:07:47.879Z,14.57
2018-10-09T06:10:16.229Z,15.70
2018-10-09T06:12:44.575Z,13.10
2018-10-09T06:15:12.897Z,12.87
2018-10-09T06:17:41.307Z,13.43
2018-10-09T06:20:09.787Z,13.33
2018-10-09T06:22:38.149Z,9.33
2018-10-09T06:25:06.775Z,10.60
2018-10-09T06:27:35.167Z,8.43
2018-10-09T06:30:03.525Z,6.80
2018-10-09T06:32:31.822Z,8.03
2018-10-09T06:35:00.198Z,6.70
2018-10-09T06:37:28.510Z,7.57
2018-10-09T06:39:56.837Z,9.43
2018-10-09T06:42:26.023Z,13.20
2018-10-09T06:44:54.362Z,12.77
2018-10-09T06:47:22.869Z,10.77
2018-10-09T06:49:51.273Z,10.77
2018-10-09T06:52:19.622Z,10.20
2018-10-09T06:54:48.025Z,12.70
2018-10-09T06:57:16.359Z,13.67
2018-10-09T06:59:44.793Z,15.00
2018-10-09T07:02:13.188Z,13.53
2018-10-09T07:04:41.580Z,12.07
2018-10-09T07:07:11.729Z,12.97
2018-10-09T07:09:40.230Z,10.37
2018-10-09T07:12:08.623Z,11.93
2018-10-09T07:14:37.944Z,13.47
2018-10-09T07:17:06.489Z,15.27
2018-10-09T07:19:34.853Z,12.03
2018-10-09T07:22:03.185Z,13.60
2018-10-09T07:24:31.559Z,14.80
2018-10-09T07:26:59.936Z,13.87
2018-10-09T07:29:28.297Z,16.27
2018-10-09T07:31:56.659Z,12.73
2018-10-09T07:34:24.984Z,20.53
2018-10-09T07:36:53.353Z,13.97
2018-10-09T07:39:22.109Z,11.37
2018-10-09T07:41:50.476Z,15.53
2018-10-09T07:44:18.899Z,15.80
2018-10-09T07:46:47.203Z,18.83
2018-10-09T07:49:15.560Z,19.80
2018-10-09T07:51:43.934Z,17.43
2018-10-09T07:54:12.337Z,21.20
2018-10-09T07:56:46.849Z,23.43
2018-10-09T07:59:17.144Z,19.53
2018-10-09T08:01:45.541Z,16.10
2018-10-09T08:04:13.896Z,18.37
2018-10-09T08:06:42.282Z,19.67
2018-10-09T08:09:11.946Z,18.63
2018-10-09T08:11:40.540Z,22.17
2018-10-09T08:14:09.435Z,22.83
2018-10-09T08:16:37.885Z,25.27
2018-10-09T08:19:06.540Z,25.07
2018-10-09T08:21:34.892Z,21.80
2018-10-09T08:24:03.269Z,24.27
2018-10-09T08:26:31.631Z,23.63
2018-10-09T08:28:59.977Z,25.37
2018-10-09T08:31:28.323Z,24.20
2018-10-09T08:33:56.680Z,28.00
2018-10-09T08:36:25.065Z,24.40
2018-10-09T08:38:59.793Z,30.60
2018-10-09T08:41:28.120Z,30.93
2018-10-09T08:43:56.491Z,30.90
2018-10-09T08:46:24.871Z,24.23
2018-10-09T08:48:53.215Z,32.87
2018-10-09T08:51:21.588Z,39.00
2018-10-09T08:53:50.164Z,28.67
2018-10-09T08:56:18.563Z,30.93
2018-10-09T08:58:46.929Z,29.93
2018-10-09T09:01:15.303Z,35.63
2018-10-09T09:03:43.686Z,31.93
2018-10-09T09:06:12.052Z,29.80
2018-10-09T09:08:41.324Z,24.10
2018-10-09T09:11:09.716Z,31.17
2018-10-09T09:13:38.136Z,24.73
2018-10-09T09:16:07.472Z,29.07
2018-10-09T09:18:35.816Z,26.07
2018-10-09T09:21:04.295Z,23.13
2018-10-09T09:23:33.179Z,31.07
2018-10-09T09:26:01.568Z,27.03
2018-10-09T09:28:30.678Z,24.97
2018-10-09T09:30:59.071Z,29.53
2018-10-09T09:33:27.421Z,27.27
2018-10-09T09:35:55.842Z,23.87
2018-10-09T09:38:24.177Z,31.27
2018-10-09T09:40:52.566Z,26.67
2018-10-09T09:43:20.902Z,27.60
2018-10-09T09:45:50.559Z,25.77
2018-10-09T09:48:18.826Z,30.93
2018-10-09T09:50:47.213Z,31.27
2018-10-09T09:53:15.573Z,26.77
2018-10-09T09:55:44.025Z,28.67
2018-10-09T09:58:12.558Z,27.23
2018-10-09T10:00:46.632Z,25.07
2018-10-09T10:03:14.988Z,26.40
2018-10-09T10:05:43.328Z,30.43
2018-10-09T10:08:11.781Z,27.73
2018-10-09T10:10:40.104Z,26.27
2018-10-09T10:13:09.103Z,23.07
2018-10-09T10:15:38.108Z,29.63
2018-10-09T10:18:06.785Z,25.33
2018-10-09T10:20:35.243Z,27.13
2018-10-09T10:23:03.565Z,24.40
2018-10-09T10:25:31.925Z,24.47
2018-10-09T10:28:00.331Z,29.03
2018-10-09T10:30:28.649Z,27.77
2018-10-09T10:32:57.267Z,26.03
2018-10-09T10:35:25.716Z,24.17
2018-10-09T10:37:54.304Z,26.43
2018-10-09T10:40:22.685Z,22.17
2018-10-09T10:42:51.259Z,21.37
2018-10-09T10:45:19.644Z,27.33
2018-10-09T10:47:47.979Z,23.20
2018-10-09T10:50:16.300Z,23.80
2018-10-09T10:52:44.790Z,21.40
2018-10-09T10:55:13.169Z,21.00
2018-10-09T10:57:41.652Z,20.10
2018-10-09T11:00:10.095Z,23.27
2018-10-09T11:02:38.457Z,20.90
2018-10-09T11:05:06.944Z,18.17
2018-10-09T11:07:35.278Z,17.40
2018-10-09T11:10:04.448Z,19.60
2018-10-09T11:12:33.535Z,20.63
2018-10-09T11:15:01.884Z,16.63
2018-10-09T11:17:30.357Z,16.67
2018-10-09T11:19:58.736Z,18.93
2018-10-09T11:22:27.125Z,15.30
2018-10-09T11:24:55.529Z,19.23
2018-10-09T11:27:23.900Z,18.23
2018-10-09T11:29:52.316Z,19.90
2018-10-09T11:32:20.702Z,16.27
2018-10-09T11:34:49.027Z,21.03
2018-10-09T11:37:17.403Z,16.17
2018-10-09T11:39:45.751Z,14.90
2018-10-09T11:42:14.218Z,14.73
2018-10-09T11:44:42.572Z,18.07
2018-10-09T11:47:10.961Z,14.17
2018-10-09T11:49:39.292Z,17.27
2018-10-09T11:52:07.680Z,17.60
2018-10-09T11:54:36.161Z,15.17
2018-10-09T11:57:04.517Z,14.00
2018-10-09T11:59:32.939Z,17.70
2018-10-09T12:02:01.319Z,19.17
2018-10-09T12:04:29.691Z,15.07
2018-10-09T12:06:58.119Z,13.70
2018-10-09T12:09:26.489Z,11.73
2018-10-09T12:11:54.901Z,11.77
2018-10-09T12:14:23.865Z,11.40
2018-10-09T12:16:52.260Z,11.90
2018-10-09T12:19:20.695Z,11.80
2018-10-09T12:21:49.050Z,11.33
2018-10-09T12:24:17.484Z,10.67
2018-10-09T12:26:45.876Z,11.27
2018-10-09T12:29:14.238Z,10.70
2018-10-09T12:31:42.744Z,10.33
2018-10-09T12:34:11.059Z,9.40
2018-10-09T12:36:39.560Z,10.70
2018-10-09T12:39:11.093Z,12.53
2018-10-09T12:41:39.505Z,12.20
2018-10-09T12:44:07.881Z,11.50
2018-10-09T12:46:36.688Z,10.80
2018-10-09T12:49:05.156Z,11.17
2018-10-09T12:51:33.532Z,10.43
2018-10-09T12:54:01.880Z,12.20
2018-10-09T12:56:30.565Z,12.23
2018-10-09T12:58:59.327Z,12.37
2018-10-09T13:01:27.832Z,12.03
2018-10-09T13:03:56.235Z,10.47
2018-10-09T13:06:24.599Z,10.00
2018-10-09T13:08:54.596Z,11.67
2018-10-09T13:11:23.123Z,11.50
2018-10-09T13:13:51.529Z,10.07
2018-10-09T13:16:19.971Z,10.63
2018-10-09T13:18:48.686Z,10.03
2018-10-09T13:21:17.210Z,11.20
2018-10-09T13:23:45.664Z,11.60
2018-10-09T13:26:14.161Z,13.43
2018-10-09T13:28:42.576Z,10.30
2018-10-09T13:31:11.063Z,11.53
2018-10-09T13:33:39.431Z,10.20
2018-10-09T13:36:07.928Z,11.20
2018-10-09T13:38:36.497Z,10.63
2018-10-09T13:41:04.980Z,11.00
2018-10-09T13:43:33.344Z,10.93
2018-10-09T13:46:01.965Z,10.47
2018-10-09T13:48:30.343Z,9.37
2018-10-09T13:50:58.837Z,9.17
2018-10-09T13:53:27.220Z,10.53
2018-10-09T13:55:55.633Z,10.87
2018-10-09T13:58:24.065Z,10.93
2018-10-09T14:00:52.979Z,10.57
2018-10-09T14:03:21.391Z,10.07
2018-10-09T14:05:49.759Z,9.77
2018-10-09T14:08:18.259Z,8.97
2018-10-09T14:10:46.855Z,10.67
2018-10-09T14:13:15.196Z,9.30
2018-10-09T14:15:44.341Z,9.80
2018-10-09T14:18:12.671Z,9.17
2018-10-09T14:20:41.275Z,8.77
2018-10-09T14:23:09.808Z,9.67
2018-10-09T14:25:44.525Z,10.47
2018-10-09T14:28:18.094Z,10.20
2018-10-09T14:30:46.489Z,10.30
2018-10-09T14:33:14.833Z,9.07
2018-10-09T14:35:43.221Z,11.40
2018-10-09T14:38:11.555Z,9.77
2018-10-09T14:40:39.898Z,9.00
2018-10-09T14:43:14.858Z,10.17
2018-10-09T14:45:43.221Z,10.37
2018-10-09T14:48:12.195Z,10.37
2018-10-09T14:50:40.557Z,10.20
2018-10-09T14:53:08.915Z,10.83
2018-10-09T14:55:37.275Z,8.70
2018-10-09T14:58:05.659Z,9.53
2018-10-09T15:00:33.987Z,10.47
2018-10-09T15:03:02.310Z,10.67
2018-10-09T15:05:30.731Z,9.90
2018-10-09T15:07:59.059Z,9.03
2018-10-09T15:10:27.456Z,9.40
2018-10-09T15:12:55.887Z,10.63
2018-10-09T15:15:24.259Z,9.13
2018-10-09T15:17:52.636Z,9.20
2018-10-09T15:20:21.004Z,9.87
2018-10-09T15:22:49.445Z,11.33
2018-10-09T15:25:17.844Z,9.40
2018-10-09T15:27:46.228Z,9.93
2018-10-09T15:30:14.604Z,9.57
2018-10-09T15:32:42.982Z,9.07
2018-10-09T15:35:11.360Z,11.80
2018-10-09T15:37:39.791Z,10.50
2018-10-09T15:40:08.184Z,10.33
2018-10-09T15:42:36.519Z,11.83
2018-10-09T15:45:05.414Z,10.30
2018-10-09T15:47:33.776Z,11.87
2018-10-09T15:50:02.205Z,11.30
2018-10-09T15:52:30.557Z,11.10
2018-10-09T15:54:58.877Z,10.07
2018-10-09T15:57:27.256Z,9.83
2018-10-09T15:59:55.705Z,10.33
2018-10-09T16:02:24.055Z,10.27
2018-10-09T16:04:52.389Z,9.30
2018-10-09T16:07:20.764Z,8.43
2018-10-09T16:09:49.105Z,10.53
2018-10-09T16:12:17.475Z,9.00
2018-10-09T16:14:46.575Z,9.47
2018-10-09T16:17:14.910Z,12.07
2018-10-09T16:19:43.304Z,11.67
2018-10-09T16:22:11.673Z,11.83
2018-10-09T16:24:40.157Z,11.10
2018-10-09T16:27:08.515Z,11.07
2018-10-09T16:29:36.892Z,13.37
2018-10-09T16:32:05.275Z,11.77
2018-10-09T16:34:33.678Z,11.13
2018-10-09T16:37:02.049Z,11.43
2018-10-09T16:39:30.423Z,12.53
2018-10-09T16:41:58.804Z,13.23
2018-10-09T16:44:27.186Z,13.07
2018-10-09T16:46:55.607Z,11.53
2018-10-09T16:49:23.950Z,10.60
2018-10-09T16:51:52.351Z,9.10
2018-10-09T16:54:20.768Z,12.23
2018-10-09T16:56:49.135Z,12.87
2018-10-09T16:59:17.521Z,11.20
2018-10-09T17:01:45.904Z,11.90
2018-10-09T17:04:14.302Z,9.33
2018-10-09T17:06:42.703Z,14.30
2018-10-09T17:09:11.721Z,10.50
2018-10-09T17:11:40.991Z,11.67
2018-10-09T17:14:09.581Z,13.30
2018-10-09T17:16:38.347Z,10.43
2018-10-09T17:19:06.691Z,11.97
2018-10-09T17:21:35.063Z,12.10
2018-10-09T17:24:03.452Z,10.87
2018-10-09T17:26:31.873Z,11.30
2018-10-09T17:29:00.292Z,15.10
2018-10-09T17:31:28.695Z,12.97
2018-10-09T17:33:57.045Z,12.40
2018-10-09T17:36:25.423Z,11.43
2018-10-09T17:38:53.856Z,11.60
2018-10-09T17:41:23.024Z,12.73
2018-10-09T17:43:51.394Z,14.10
2018-10-09T17:46:19.857Z,13.27
2018-10-09T17:48:48.267Z,12.80
2018-10-09T17:51:16.574Z,10.33
2018-10-09T17:53:44.968Z,18.20
2018-10-09T17:56:13.302Z,12.33
2018-10-09T17:58:41.663Z,17.70
2018-10-09T18:01:10.102Z,12.90
2018-10-09T18:03:38.475Z,13.10
2018-10-09T18:06:06.914Z,11.37
2018-10-09T18:08:35.275Z,11.77
2018-10-09T18:11:03.644Z,11.50
2018-10-09T18:13:32.055Z,15.40
2018-10-09T18:16:00.391Z,13.37
2018-10-09T18:18:28.894Z,12.17
2018-10-09T18:20:57.591Z,13.13
2018-10-09T18:23:25.999Z,16.50
2018-10-09T18:25:54.427Z,11.90
2018-10-09T18:28:22.767Z,13.90
2018-10-09T18:30:51.136Z,12.60
2018-10-09T18:33:19.758Z,12.03
2018-10-09T18:35:47.941Z,12.40
2018-10-09T18:38:16.332Z,12.23
2018-10-09T18:40:44.826Z,16.87
2018-10-09T18:43:13.417Z,18.33
2018-10-09T18:45:42.488Z,21.33
2018-10-09T18:48:10.862Z,17.17
2018-10-09T18:50:39.396Z,14.60
2018-10-09T18:53:07.856Z,16.13
2018-10-09T18:55:36.212Z,15.13
2018-10-09T18:58:04.555Z,16.03
2018-10-09T19:00:32.918Z,17.37
2018-10-09T19:03:01.274Z,18.00
2018-10-09T19:05:29.669Z,18.10
2018-10-09T19:07:58.053Z,20.27
2018-10-09T19:10:26.388Z,21.40
2018-10-09T19:12:55.356Z,23.70
2018-10-09T19:15:23.909Z,22.03
2018-10-09T19:17:52.343Z,23.93
2018-10-09T19:20:20.677Z,23.80
2018-10-09T19:22:49.043Z,21.00
2018-10-09T19:25:17.408Z,22.77
2018-10-09T19:27:45.782Z,21.20
2018-10-09T19:30:14.182Z,22.33
2018-10-09T19:32:42.625Z,21.37
2018-10-09T19:35:11.568Z,22.20
2018-10-09T19:37:39.977Z,24.97
2018-10-09T19:40:08.335Z,19.50
2018-10-09T19:42:36.706Z,21.23
2018-10-09T19:45:05.865Z,19.40
2018-10-09T19:47:35.117Z,17.83
2018-10-09T19:50:04.212Z,22.30
2018-10-09T19:52:32.574Z,22.20
2018-10-09T19:55:00.939Z,24.10
2018-10-09T19:57:29.313Z,25.60
2018-10-09T19:59:57.656Z,27.17
2018-10-09T20:02:38.290Z,30.27
2018-10-09T20:05:06.950Z,29.87
2018-10-09T20:07:35.491Z,25.57
2018-10-09T20:10:03.898Z,24.90
2018-10-09T20:12:32.282Z,26.50
2018-10-09T20:15:00.655Z,24.43
2018-10-09T20:17:29.097Z,24.73
2018-10-09T20:19:57.442Z,20.47
2018-10-09T20:22:25.814Z,19.73
2018-10-09T20:24:54.265Z,21.63
2018-10-09T20:27:22.741Z,22.97
2018-10-09T20:29:51.070Z,22.37
2018-10-09T20:32:19.405Z,22.07
2018-10-09T20:34:47.780Z,27.00
2018-10-09T20:37:16.126Z,25.57
2018-10-09T20:39:44.575Z,32.03
2018-10-09T20:42:12.906Z,25.47
2018-10-09T20:47:22.247Z,31.67
2018-10-09T20:49:50.598Z,32.90
2018-10-09T20:52:18.957Z,31.23
2018-10-09T20:54:48.780Z,30.17
2018-10-09T20:57:17.104Z,31.40
2018-10-09T20:59:45.466Z,32.83
2018-10-09T21:02:15.138Z,28.53
2018-10-09T21:04:43.664Z,30.43
2018-10-09T21:07:12.068Z,29.43
2018-10-09T21:09:40.445Z,30.57
2018-10-09T21:12:09.014Z,32.03
2018-10-09T21:14:37.433Z,33.33
2018-10-09T21:17:05.963Z,33.83
2018-10-09T21:19:34.332Z,30.53
2018-10-09T21:22:02.674Z,33.37
2018-10-09T21:24:31.118Z,35.83
2018-10-09T21:26:59.595Z,29.13
2018-10-09T21:29:27.966Z,27.37
2018-10-09T21:31:56.359Z,27.27
2018-10-09T21:34:24.794Z,27.60
2018-10-09T21:36:53.152Z,27.10
2018-10-09T21:39:21.526Z,22.10
2018-10-09T21:41:49.864Z,22.53
2018-10-09T21:44:18.196Z,25.40
2018-10-09T21:46:46.588Z,35.10
2018-10-09T21:49:15.064Z,30.17
2018-10-09T21:51:43.434Z,29.53
2018-10-09T21:54:11.779Z,27.53
2018-10-09T21:56:40.166Z,33.80
2018-10-09T21:59:08.590Z,38.83
2018-10-09T22:01:36.961Z,31.87
2018-10-09T22:04:05.356Z,35.47
2018-10-09T22:06:33.749Z,35.67
2018-10-09T22:09:02.106Z,35.57
2018-10-09T22:11:30.464Z,33.03
2018-10-09T22:13:58.836Z,36.23
2018-10-09T22:16:27.230Z,35.93
2018-10-09T22:18:55.595Z,38.80
2018-10-09T22:21:24.011Z,35.27
2018-10-09T22:23:52.424Z,33.63
2018-10-09T22:26:20.813Z,38.30
2018-10-09T22:28:49.251Z,32.60
2018-10-09T22:31:17.590Z,36.47
2018-10-09T22:33:46.581Z,33.67
2018-10-09T22:36:14.959Z,36.30
2018-10-09T22:38:43.436Z,37.27
2018-10-09T22:41:11.815Z,36.57
2018-10-09T22:43:40.130Z,33.33
2018-10-09T22:46:09.392Z,37.67
2018-10-09T22:48:37.765Z,34.40
2018-10-09T22:51:06.187Z,41.53
2018-10-09T22:53:34.525Z,32.90
2018-10-09T22:56:09.496Z,37.30
2018-10-09T22:58:37.817Z,47.60
2018-10-09T23:01:06.410Z,39.17
2018-10-09T23:03:35.310Z,39.13
2018-10-09T23:06:03.678Z,38.27
2018-10-09T23:08:32.033Z,37.57
2018-10-09T23:11:00.415Z,34.70
2018-10-09T23:13:28.739Z,39.00
2018-10-09T23:15:57.103Z,32.53
2018-10-09T23:18:25.523Z,38.20
2018-10-09T23:20:53.866Z,41.27
2018-10-09T23:23:22.800Z,35.70
2018-10-09T23:25:51.296Z,36.53
2018-10-09T23:28:19.832Z,28.03
2018-10-09T23:30:48.206Z,24.53
2018-10-09T23:33:16.655Z,29.67
2018-10-09T23:35:46.334Z,25.33
2018-10-09T23:38:15.248Z,33.57
2018-10-09T23:40:43.736Z,32.80
2018-10-09T23:43:12.253Z,26.57
2018-10-09T23:45:40.564Z,27.80
2018-10-09T23:48:10.596Z,34.67
2018-10-09T23:50:40.652Z,30.20
2018-10-09T23:53:09.858Z,33.40
2018-10-09T23:55:39.002Z,35.53
2018-10-09T23:58:07.534Z,39.17
